createdAt,value
2023-02-19T00:00:53.383Z,0.00
2023-02-19T00:01:53.403Z,0.00
2023-02-19T00:02:53.341Z,0.00
2023-02-19T00:03:53.341Z,0.00
2023-02-19T00:04:53.377Z,0.00
2023-02-19T00:05:53.315Z,0.00
2023-02-19T00:06:53.313Z,0.00
2023-02-19T00:07:53.290Z,0.00
2023-02-19T00:08:53.274Z,0.00
2023-02-19T00:09:53.488Z,0.00
2023-02-19T00:10:53.272Z,0.00
2023-02-19T00:11:53.242Z,0.00
2023-02-19T00:12:53.242Z,0.00
2023-02-19T00:13:53.216Z,0.00
2023-02-19T00:14:53.208Z,0.00
2023-02-19T00:15:53.179Z,0.00
2023-02-19T00:16:53.180Z,0.00
2023-02-19T00:17:53.158Z,0.00
2023-02-19T00:18:53.154Z,0.00
2023-02-19T00:19:53.153Z,0.00
2023-02-19T00:20:53.128Z,0.00
2023-02-19T00:21:53.098Z,0.00
2023-02-19T00:22:53.126Z,0.00
2023-02-19T00:23:53.081Z,0.00
2023-02-19T00:24:53.102Z,0.00
2023-02-19T00:25:53.072Z,0.00
2023-02-19T00:26:53.054Z,0.00
2023-02-19T00:27:53.038Z,0.00
2023-02-19T00:28:53.034Z,0.00
2023-02-19T00:29:53.058Z,0.00
2023-02-19T00:30:53.031Z,0.00
2023-02-19T00:31:53.026Z,0.00
2023-02-19T00:32:52.971Z,0.00
2023-02-19T00:33:52.939Z,0.00
2023-02-19T00:34:52.941Z,0.00
2023-02-19T00:35:53.010Z,0.00
2023-02-19T00:36:52.926Z,0.00
2023-02-19T00:37:52.902Z,0.00
2023-02-19T00:38:52.921Z,0.00
2023-02-19T00:39:52.915Z,0.00
2023-02-19T00:40:52.886Z,0.00
2023-02-19T00:41:52.865Z,0.00
2023-02-19T00:42:52.841Z,0.00
2023-02-19T00:43:52.860Z,0.00
2023-02-19T00:44:52.845Z,0.00
2023-02-19T00:45:52.824Z,0.00
2023-02-19T00:46:52.827Z,0.00
2023-02-19T00:47:52.821Z,0.00
2023-02-19T00:48:52.774Z,0.00
2023-02-19T00:49:52.751Z,0.00
2023-02-19T00:50:52.750Z,0.00
2023-02-19T00:51:52.732Z,0.00
2023-02-19T00:52:52.730Z,0.00
2023-02-19T00:53:52.738Z,0.00
2023-02-19T00:54:52.684Z,0.00
2023-02-19T00:55:52.687Z,0.00
2023-02-19T00:56:52.681Z,0.00
2023-02-19T00:57:52.694Z,0.00
2023-02-19T00:58:52.640Z,0.00
2023-02-19T00:59:52.617Z,0.00
2023-02-19T01:00:52.623Z,0.00
2023-02-19T01:01:52.613Z,0.00
2023-02-19T01:02:52.612Z,0.00
2023-02-19T01:03:52.600Z,0.00
2023-02-19T01:04:52.611Z,0.00
2023-02-19T01:05:52.540Z,0.00
2023-02-19T01:06:52.560Z,0.00
2023-02-19T01:07:52.590Z,0.00
2023-02-19T01:08:52.592Z,0.00
2023-02-19T01:09:52.503Z,0.00
2023-02-19T01:10:52.510Z,0.00
2023-02-19T01:11:52.463Z,0.00
2023-02-19T01:12:52.517Z,0.00
2023-02-19T01:13:52.437Z,0.00
2023-02-19T01:14:52.417Z,0.00
2023-02-19T01:15:52.504Z,0.00
2023-02-19T01:16:52.431Z,0.00
2023-02-19T01:17:52.397Z,0.00
2023-02-19T01:18:52.395Z,0.00
2023-02-19T01:19:52.357Z,0.00
2023-02-19T01:20:52.360Z,0.00
2023-02-19T01:21:52.360Z,0.00
2023-02-19T01:22:52.352Z,0.00
2023-02-19T01:23:52.323Z,0.00
2023-02-19T01:24:52.320Z,0.00
2023-02-19T01:25:52.301Z,0.00
2023-02-19T01:26:52.307Z,0.00
2023-02-19T01:27:52.295Z,0.00
2023-02-19T01:28:52.262Z,0.00
2023-02-19T01:29:52.267Z,0.00
2023-02-19T01:30:52.238Z,0.00
2023-02-19T01:31:52.290Z,0.00
2023-02-19T01:32:52.215Z,0.00
2023-02-19T01:33:52.190Z,0.00
2023-02-19T01:34:52.192Z,0.00
2023-02-19T01:35:52.181Z,0.00
2023-02-19T01:36:52.202Z,0.00
2023-02-19T01:37:52.129Z,0.00
2023-02-19T01:38:52.140Z,0.00
2023-02-19T01:39:52.136Z,0.00
2023-02-19T01:40:52.120Z,0.00
2023-02-19T01:41:52.094Z,0.00
2023-02-19T01:42:52.091Z,0.00
2023-02-19T01:43:52.065Z,0.00
2023-02-19T01:44:52.066Z,0.00
2023-02-19T01:45:52.065Z,0.00
2023-02-19T01:46:52.039Z,0.00
2023-02-19T01:47:51.999Z,0.00
2023-02-19T01:48:51.998Z,0.00
2023-02-19T01:49:52.001Z,0.00
2023-02-19T01:50:51.989Z,0.00
2023-02-19T01:51:51.972Z,0.00
2023-02-19T01:52:51.972Z,0.00
2023-02-19T01:53:51.926Z,0.00
2023-02-19T01:54:51.908Z,0.00
2023-02-19T01:55:51.934Z,0.00
2023-02-19T01:56:51.929Z,0.00
2023-02-19T01:57:51.891Z,0.00
2023-02-19T01:58:51.878Z,0.00
2023-02-19T01:59:51.869Z,0.00
2023-02-19T02:00:51.935Z,0.00
2023-02-19T02:01:51.855Z,0.00
2023-02-19T02:02:51.824Z,0.00
2023-02-19T02:03:51.812Z,0.00
2023-02-19T02:04:51.809Z,0.00
2023-02-19T02:05:51.792Z,0.00
2023-02-19T02:06:51.781Z,0.00
2023-02-19T02:07:51.782Z,0.00
2023-02-19T02:08:51.737Z,0.00
2023-02-19T02:09:51.753Z,0.00
2023-02-19T02:10:51.710Z,0.00
2023-02-19T02:11:51.738Z,0.00
2023-02-19T02:12:51.687Z,0.00
2023-02-19T02:13:51.679Z,0.00
2023-02-19T02:14:51.662Z,0.00
2023-02-19T02:15:51.819Z,0.00
2023-02-19T02:16:51.642Z,0.00
2023-02-19T02:17:51.638Z,0.00
2023-02-19T02:18:51.609Z,0.00
2023-02-19T02:19:51.626Z,0.00
2023-02-19T02:20:51.613Z,0.00
2023-02-19T02:21:51.609Z,0.00
2023-02-19T02:22:51.585Z,0.00
2023-02-19T02:23:51.562Z,0.00
2023-02-19T02:24:51.553Z,0.00
2023-02-19T02:25:58.632Z,0.00
2023-02-19T02:26:51.549Z,0.00
2023-02-19T02:27:51.521Z,0.00
2023-02-19T02:28:51.497Z,0.00
2023-02-19T02:29:51.479Z,0.00
2023-02-19T02:30:51.497Z,0.00
2023-02-19T02:31:51.583Z,0.00
2023-02-19T02:32:51.447Z,0.00
2023-02-19T02:33:51.442Z,0.00
2023-02-19T02:34:51.431Z,0.00
2023-02-19T02:35:51.417Z,0.00
2023-02-19T02:36:51.410Z,0.00
2023-02-19T02:37:51.414Z,0.00
2023-02-19T02:38:51.396Z,0.00
2023-02-19T02:39:51.416Z,0.00
2023-02-19T02:40:51.351Z,0.00
2023-02-19T02:41:51.328Z,0.00
2023-02-19T02:42:51.307Z,0.00
2023-02-19T02:43:51.322Z,0.00
2023-02-19T02:44:51.287Z,0.00
2023-02-19T02:45:51.365Z,0.00
2023-02-19T02:46:51.281Z,0.00
2023-02-19T02:47:51.275Z,0.00
2023-02-19T02:48:51.248Z,0.00
2023-02-19T02:49:51.227Z,0.00
2023-02-19T02:50:51.230Z,0.00
2023-02-19T02:51:51.212Z,0.00
2023-02-19T02:52:51.189Z,0.00
2023-02-19T02:53:51.190Z,0.00
2023-02-19T02:54:51.181Z,0.00
2023-02-19T02:55:51.161Z,0.00
2023-02-19T02:56:51.177Z,0.00
2023-02-19T02:57:51.125Z,0.00
2023-02-19T02:58:51.127Z,0.00
2023-02-19T02:59:51.110Z,0.00
2023-02-19T03:00:51.137Z,0.00
2023-02-19T03:01:51.112Z,0.00
2023-02-19T03:02:51.056Z,0.00
2023-02-19T03:03:51.063Z,0.00
2023-02-19T03:04:51.060Z,0.00
2023-02-19T03:05:51.023Z,0.00
2023-02-19T03:06:51.030Z,0.00
2023-02-19T03:07:51.019Z,0.00
2023-02-19T03:08:50.998Z,0.00
2023-02-19T03:09:50.987Z,0.00
2023-02-19T03:10:50.974Z,0.00
2023-02-19T03:11:50.960Z,0.00
2023-02-19T03:12:50.932Z,0.00
2023-02-19T03:13:50.924Z,0.00
2023-02-19T03:14:50.920Z,0.00
2023-02-19T03:15:50.910Z,0.00
2023-02-19T03:16:50.901Z,0.00
2023-02-19T03:17:50.892Z,0.00
2023-02-19T03:18:50.868Z,0.00
2023-02-19T03:19:50.866Z,0.00
2023-02-19T03:20:50.833Z,0.00
2023-02-19T03:21:50.814Z,0.00
2023-02-19T03:22:50.825Z,0.00
2023-02-19T03:23:50.806Z,0.00
2023-02-19T03:24:50.790Z,0.00
2023-02-19T03:25:50.762Z,0.00
2023-02-19T03:26:50.744Z,0.00
2023-02-19T03:27:50.742Z,0.00
2023-02-19T03:28:50.746Z,0.00
2023-02-19T03:29:50.730Z,0.00
2023-02-19T03:30:50.693Z,0.00
2023-02-19T03:31:50.747Z,0.00
2023-02-19T03:32:50.694Z,0.00
2023-02-19T03:33:50.685Z,0.00
2023-02-19T03:34:50.654Z,0.00
2023-02-19T03:35:50.647Z,0.00
2023-02-19T03:36:50.622Z,0.00
2023-02-19T03:37:50.609Z,0.00
2023-02-19T03:38:50.605Z,0.00
2023-02-19T03:39:50.593Z,0.00
2023-02-19T03:40:50.564Z,0.00
2023-02-19T03:41:50.577Z,0.00
2023-02-19T03:42:50.542Z,0.00
2023-02-19T03:43:50.531Z,0.00
2023-02-19T03:44:50.555Z,0.00
2023-02-19T03:45:50.527Z,0.00
2023-02-19T03:46:50.515Z,0.00
2023-02-19T03:47:50.480Z,0.00
2023-02-19T03:48:50.476Z,0.00
2023-02-19T03:49:50.465Z,0.00
2023-02-19T03:50:50.461Z,0.00
2023-02-19T03:51:50.431Z,0.00
2023-02-19T03:52:50.411Z,0.00
2023-02-19T03:53:50.420Z,0.00
2023-02-19T03:54:50.382Z,0.00
2023-02-19T03:55:50.404Z,0.00
2023-02-19T03:56:50.363Z,0.00
2023-02-19T03:57:50.364Z,0.00
2023-02-19T03:58:50.344Z,0.00
2023-02-19T03:59:50.350Z,0.00
2023-02-19T04:00:50.314Z,0.00
2023-02-19T04:01:50.319Z,0.00
2023-02-19T04:02:50.305Z,0.00
2023-02-19T04:03:50.286Z,0.00
2023-02-19T04:04:50.308Z,0.00
2023-02-19T04:05:50.257Z,0.00
2023-02-19T04:06:50.255Z,0.00
2023-02-19T04:07:50.236Z,0.00
2023-02-19T04:08:50.217Z,0.00
2023-02-19T04:09:50.215Z,0.00
2023-02-19T04:10:50.207Z,0.00
2023-02-19T04:11:50.232Z,0.00
2023-02-19T04:12:50.177Z,0.00
2023-02-19T04:13:50.177Z,0.00
2023-02-19T04:14:50.173Z,0.00
2023-02-19T04:15:50.134Z,0.00
2023-02-19T04:16:50.185Z,0.00
2023-02-19T04:17:50.125Z,0.00
2023-02-19T04:18:50.111Z,0.00
2023-02-19T04:19:50.086Z,0.00
2023-02-19T04:20:50.083Z,0.00
2023-02-19T04:21:50.059Z,0.00
2023-02-19T04:22:50.057Z,0.00
2023-02-19T04:23:50.051Z,0.00
2023-02-19T04:24:50.051Z,0.00
2023-02-19T04:25:50.023Z,0.00
2023-02-19T04:26:50.011Z,0.00
2023-02-19T04:27:49.985Z,0.00
2023-02-19T04:28:49.983Z,0.00
2023-02-19T04:29:49.986Z,0.00
2023-02-19T04:30:49.966Z,0.00
2023-02-19T04:31:49.990Z,0.00
2023-02-19T04:32:49.923Z,0.00
2023-02-19T04:33:49.936Z,0.00
2023-02-19T04:34:49.892Z,0.00
2023-02-19T04:35:49.901Z,0.00
2023-02-19T04:36:49.858Z,0.00
2023-02-19T04:37:49.852Z,0.00
2023-02-19T04:38:49.845Z,0.00
2023-02-19T04:39:49.855Z,0.00
2023-02-19T04:40:49.829Z,0.00
2023-02-19T04:41:49.836Z,0.00
2023-02-19T04:42:49.781Z,0.00
2023-02-19T04:43:49.793Z,0.00
2023-02-19T04:44:49.774Z,0.00
2023-02-19T04:45:49.791Z,0.00
2023-02-19T04:46:49.731Z,0.00
2023-02-19T04:47:49.741Z,0.00
2023-02-19T04:48:49.734Z,0.00
2023-02-19T04:49:49.733Z,0.00
2023-02-19T04:50:49.680Z,0.00
2023-02-19T04:51:49.697Z,0.00
2023-02-19T04:52:49.673Z,0.00
2023-02-19T04:53:49.663Z,0.00
2023-02-19T04:54:49.629Z,0.00
2023-02-19T04:55:49.620Z,0.00
2023-02-19T04:56:49.609Z,0.00
2023-02-19T04:57:49.608Z,0.00
2023-02-19T04:58:49.578Z,0.00
2023-02-19T04:59:49.589Z,0.00
2023-02-19T05:00:49.573Z,0.00
2023-02-19T05:01:49.564Z,0.00
2023-02-19T05:02:49.565Z,0.00
2023-02-19T05:03:49.528Z,0.00
2023-02-19T05:04:49.509Z,0.00
2023-02-19T05:05:49.510Z,0.00
2023-02-19T05:06:49.477Z,0.00
2023-02-19T05:07:49.485Z,0.00
2023-02-19T05:08:49.472Z,0.00
2023-02-19T05:09:49.453Z,0.00
2023-02-19T05:10:49.441Z,0.00
2023-02-19T05:11:49.425Z,0.00
2023-02-19T05:12:49.430Z,0.00
2023-02-19T05:13:49.402Z,0.00
2023-02-19T05:14:49.394Z,0.00
2023-02-19T05:15:49.424Z,0.00
2023-02-19T05:16:49.348Z,0.00
2023-02-19T05:17:49.343Z,0.00
2023-02-19T05:18:49.336Z,0.00
2023-02-19T05:19:49.346Z,0.00
2023-02-19T05:20:49.312Z,0.00
2023-02-19T05:21:49.305Z,0.00
2023-02-19T05:22:49.326Z,0.00
2023-02-19T05:23:49.290Z,0.00
2023-02-19T05:24:49.262Z,0.00
2023-02-19T05:25:49.240Z,0.00
2023-02-19T05:26:49.243Z,0.00
2023-02-19T05:27:49.271Z,0.00
2023-02-19T05:28:49.208Z,0.00
2023-02-19T05:29:49.203Z,0.00
2023-02-19T05:30:49.252Z,0.00
2023-02-19T05:31:49.523Z,0.00
2023-02-19T05:32:49.191Z,0.00
2023-02-19T05:33:49.152Z,0.00
2023-02-19T05:34:49.141Z,0.00
2023-02-19T05:35:49.129Z,0.00
2023-02-19T05:36:49.099Z,0.00
2023-02-19T05:37:49.186Z,0.00
2023-02-19T05:38:49.105Z,0.00
2023-02-19T05:39:49.098Z,0.00
2023-02-19T05:40:49.060Z,0.00
2023-02-19T05:41:49.050Z,0.00
2023-02-19T05:42:49.051Z,0.00
2023-02-19T05:43:49.035Z,0.00
2023-02-19T05:44:48.996Z,0.00
2023-02-19T05:45:49.006Z,0.00
2023-02-19T05:46:48.988Z,0.00
2023-02-19T05:47:48.973Z,0.00
2023-02-19T05:48:48.979Z,0.00
2023-02-19T05:49:48.946Z,4.00
2023-02-19T05:50:48.940Z,4.00
2023-02-19T05:51:48.930Z,4.00
2023-02-19T05:52:48.906Z,4.00
2023-02-19T05:53:48.911Z,4.00
2023-02-19T05:54:48.891Z,4.00
2023-02-19T05:55:48.880Z,8.00
2023-02-19T05:56:48.878Z,8.00
2023-02-19T05:57:48.841Z,8.00
2023-02-19T05:58:48.839Z,12.00
2023-02-19T05:59:48.833Z,12.00
2023-02-19T06:00:48.806Z,12.00
2023-02-19T06:01:48.825Z,16.00
2023-02-19T06:02:48.859Z,16.00
2023-02-19T06:03:48.821Z,20.00
2023-02-19T06:04:48.746Z,24.00
2023-02-19T06:05:48.774Z,28.00
2023-02-19T06:06:48.765Z,32.00
2023-02-19T06:07:48.723Z,36.00
2023-02-19T06:08:48.731Z,40.00
2023-02-19T06:09:48.696Z,44.00
2023-02-19T06:10:48.691Z,48.00
2023-02-19T06:11:48.666Z,52.00
2023-02-19T06:12:48.657Z,60.00
2023-02-19T06:13:48.646Z,64.00
2023-02-19T06:14:48.650Z,72.00
2023-02-19T06:15:48.642Z,76.00
2023-02-19T06:16:48.640Z,84.00
2023-02-19T06:17:48.617Z,88.00
2023-02-19T06:18:48.595Z,88.00
2023-02-19T06:19:48.595Z,96.00
2023-02-19T06:20:48.578Z,108.00
2023-02-19T06:21:48.551Z,120.00
2023-02-19T06:22:48.552Z,128.00
2023-02-19T06:23:48.523Z,128.00
2023-02-19T06:24:48.522Z,136.00
2023-02-19T06:25:48.510Z,144.00
2023-02-19T06:26:48.499Z,156.00
2023-02-19T06:27:48.466Z,164.00
2023-02-19T06:28:48.497Z,180.00
2023-02-19T06:29:48.440Z,192.00
2023-02-19T06:30:50.612Z,204.00
2023-02-19T06:31:48.483Z,220.00
2023-02-19T06:32:48.425Z,232.00
2023-02-19T06:33:48.411Z,244.00
2023-02-19T06:34:48.421Z,256.00
2023-02-19T06:35:48.391Z,268.00
2023-02-19T06:36:48.359Z,284.00
2023-02-19T06:37:48.346Z,300.00
2023-02-19T06:38:48.341Z,308.00
2023-02-19T06:39:48.341Z,324.00
2023-02-19T06:40:48.310Z,336.00
2023-02-19T06:41:48.299Z,352.00
2023-02-19T06:42:48.290Z,364.00
2023-02-19T06:43:48.272Z,372.00
2023-02-19T06:44:48.260Z,384.00
2023-02-19T06:45:48.269Z,396.00
2023-02-19T06:46:48.314Z,412.00
2023-02-19T06:47:48.243Z,424.00
2023-02-19T06:48:48.226Z,440.00
2023-02-19T06:49:48.205Z,452.00
2023-02-19T06:50:48.226Z,468.00
2023-02-19T06:51:48.171Z,488.00
2023-02-19T06:52:48.189Z,512.00
2023-02-19T06:53:48.143Z,532.00
2023-02-19T06:54:48.133Z,568.00
2023-02-19T06:55:48.143Z,616.00
2023-02-19T06:56:48.126Z,676.00
2023-02-19T06:57:48.111Z,736.00
2023-02-19T06:58:48.100Z,780.00
2023-02-19T06:59:48.071Z,812.00
2023-02-19T07:00:48.099Z,824.00
2023-02-19T07:01:48.041Z,844.00
2023-02-19T07:02:48.046Z,872.00
2023-02-19T07:03:48.047Z,912.00
2023-02-19T07:04:48.011Z,948.00
2023-02-19T07:05:48.049Z,988.00
2023-02-19T07:06:48.014Z,1012.00
2023-02-19T07:07:47.981Z,1036.00
2023-02-19T07:08:47.970Z,1088.00
2023-02-19T07:09:47.951Z,1156.00
2023-02-19T07:10:47.936Z,1240.00
2023-02-19T07:11:47.916Z,1344.00
2023-02-19T07:12:47.931Z,1452.00
2023-02-19T07:13:47.896Z,1556.00
2023-02-19T07:14:47.898Z,1656.00
2023-02-19T07:15:47.866Z,1732.00
2023-02-19T07:16:47.865Z,1800.00
2023-02-19T07:17:47.856Z,1860.00
2023-02-19T07:18:47.848Z,1912.00
2023-02-19T07:19:47.833Z,1952.00
2023-02-19T07:20:47.826Z,1972.00
2023-02-19T07:21:47.793Z,1984.00
2023-02-19T07:22:47.787Z,1992.00
2023-02-19T07:23:47.764Z,2012.00
2023-02-19T07:24:48.075Z,2024.00
2023-02-19T07:25:47.758Z,2052.00
2023-02-19T07:26:47.736Z,2076.00
2023-02-19T07:27:47.719Z,2116.00
2023-02-19T07:28:47.709Z,2180.00
2023-02-19T07:29:47.726Z,2256.00
2023-02-19T07:30:47.716Z,2316.00
2023-02-19T07:31:47.710Z,2368.00
2023-02-19T07:32:47.663Z,2400.00
2023-02-19T07:33:47.658Z,2436.00
2023-02-19T07:34:47.646Z,2464.00
2023-02-19T07:35:47.639Z,2496.00
2023-02-19T07:36:47.617Z,2524.00
2023-02-19T07:37:47.597Z,2560.00
2023-02-19T07:38:47.599Z,2596.00
2023-02-19T07:39:47.565Z,2640.00
2023-02-19T07:40:47.564Z,2692.00
2023-02-19T07:41:47.561Z,2744.00
2023-02-19T07:42:47.551Z,2796.00
2023-02-19T07:43:47.529Z,2856.00
2023-02-19T07:44:47.526Z,2880.00
2023-02-19T07:45:47.710Z,2896.00
2023-02-19T07:46:47.503Z,2872.00
2023-02-19T07:47:47.477Z,2852.00
2023-02-19T07:48:47.483Z,2844.00
2023-02-19T07:49:47.462Z,2840.00
2023-02-19T07:50:47.438Z,2844.00
2023-02-19T07:51:47.555Z,2848.00
2023-02-19T07:52:47.407Z,2872.00
2023-02-19T07:53:47.399Z,2908.00
2023-02-19T07:54:47.411Z,2952.00
2023-02-19T07:55:47.398Z,2976.00
2023-02-19T07:56:47.370Z,3012.00
2023-02-19T07:57:47.373Z,3024.00
2023-02-19T07:58:47.348Z,3036.00
2023-02-19T07:59:47.350Z,3052.00
2023-02-19T08:00:47.355Z,3052.00
2023-02-19T08:01:47.322Z,3032.00
2023-02-19T08:02:47.381Z,3028.00
2023-02-19T08:03:50.124Z,3052.00
2023-02-19T08:04:47.285Z,3064.00
2023-02-19T08:05:47.263Z,3060.00
2023-02-19T08:06:47.249Z,3092.00
2023-02-19T08:07:47.233Z,3120.00
2023-02-19T08:08:47.217Z,3140.00
2023-02-19T08:09:47.222Z,3212.00
2023-02-19T08:10:47.191Z,3276.00
2023-02-19T08:11:47.169Z,3324.00
2023-02-19T08:12:47.177Z,3388.00
2023-02-19T08:13:47.151Z,3424.00
2023-02-19T08:14:47.197Z,3468.00
2023-02-19T08:15:47.131Z,3504.00
2023-02-19T08:16:47.220Z,3560.00
2023-02-19T08:17:47.110Z,3628.00
2023-02-19T08:18:47.097Z,3684.00
2023-02-19T08:19:48.462Z,3692.00
2023-02-19T08:20:47.225Z,3488.00
2023-02-19T08:21:47.140Z,3572.00
2023-02-19T08:22:47.051Z,3480.00
2023-02-19T08:23:48.345Z,3432.00
2023-02-19T08:24:47.029Z,3164.00
2023-02-19T08:25:47.012Z,3092.00
2023-02-19T08:26:54.027Z,2952.00
2023-02-19T08:27:46.991Z,3296.00
2023-02-19T08:28:46.987Z,3480.00
2023-02-19T08:29:47.004Z,3620.00
2023-02-19T08:30:47.121Z,3664.00
2023-02-19T08:31:47.063Z,3176.00
2023-02-19T08:32:46.920Z,2908.00
2023-02-19T08:33:46.904Z,2580.00
2023-02-19T08:34:46.927Z,2688.00
2023-02-19T08:35:46.885Z,2516.00
2023-02-19T08:36:46.913Z,2324.00
2023-02-19T08:37:46.834Z,2408.00
2023-02-19T08:38:46.834Z,2968.00
2023-02-19T08:39:46.813Z,3240.00
2023-02-19T08:40:46.828Z,3484.00
2023-02-19T08:41:46.793Z,3952.00
2023-02-19T08:42:46.775Z,3688.00
2023-02-19T08:43:46.762Z,4080.00
2023-02-19T08:44:46.766Z,3744.00
2023-02-19T08:45:46.835Z,4276.00
2023-02-19T08:46:46.734Z,3688.00
2023-02-19T08:47:46.725Z,4356.00
2023-02-19T08:48:46.703Z,4240.00
2023-02-19T08:49:46.682Z,4760.00
2023-02-19T08:50:46.686Z,4564.00
2023-02-19T08:51:46.661Z,4044.00
2023-02-19T08:52:46.675Z,4100.00
2023-02-19T08:53:46.630Z,4056.00
2023-02-19T08:54:46.634Z,4256.00
2023-02-19T08:55:46.661Z,5144.00
2023-02-19T08:56:46.641Z,4944.00
2023-02-19T08:57:46.594Z,5704.00
2023-02-19T08:58:46.585Z,5228.00
2023-02-19T08:59:46.549Z,4144.00
2023-02-19T09:00:46.559Z,4276.00
2023-02-19T09:01:46.616Z,4376.00
2023-02-19T09:02:46.531Z,4652.00
2023-02-19T09:03:46.526Z,5020.00
2023-02-19T09:04:46.523Z,4668.00
2023-02-19T09:05:46.504Z,3780.00
2023-02-19T09:06:46.476Z,3652.00
2023-02-19T09:07:46.460Z,3780.00
2023-02-19T09:08:46.467Z,3572.00
2023-02-19T09:09:46.432Z,3508.00
2023-02-19T09:10:46.430Z,3320.00
2023-02-19T09:11:49.009Z,3384.00
2023-02-19T09:12:46.417Z,3304.00
2023-02-19T09:13:46.388Z,3276.00
2023-02-19T09:14:46.392Z,3432.00
2023-02-19T09:15:46.392Z,3576.00
2023-02-19T09:16:46.347Z,3548.00
2023-02-19T09:17:46.348Z,3376.00
2023-02-19T09:18:46.380Z,3396.00
2023-02-19T09:19:46.310Z,3816.00
2023-02-19T09:20:46.299Z,4132.00
2023-02-19T09:21:46.285Z,4000.00
2023-02-19T09:22:46.283Z,4432.00
2023-02-19T09:23:46.287Z,5004.00
2023-02-19T09:24:46.271Z,4652.00
2023-02-19T09:25:46.221Z,4936.00
2023-02-19T09:26:46.225Z,4688.00
2023-02-19T09:27:46.234Z,4640.00
2023-02-19T09:28:46.201Z,4856.00
2023-02-19T09:29:46.171Z,4748.00
2023-02-19T09:30:46.209Z,4984.00
2023-02-19T09:31:46.251Z,4684.00
2023-02-19T09:32:46.148Z,4544.00
2023-02-19T09:33:46.175Z,4060.00
2023-02-19T09:34:46.144Z,4148.00
2023-02-19T09:35:46.121Z,3820.00
2023-02-19T09:36:46.093Z,3476.00
2023-02-19T09:37:46.074Z,4052.00
2023-02-19T09:38:46.102Z,3672.00
2023-02-19T09:39:46.062Z,3528.00
2023-02-19T09:40:46.036Z,3724.00
2023-02-19T09:41:46.022Z,3548.00
2023-02-19T09:42:46.033Z,4140.00
2023-02-19T09:43:46.006Z,4676.00
2023-02-19T09:44:46.035Z,4952.00
2023-02-19T09:45:46.003Z,4812.00
2023-02-19T09:46:45.989Z,4948.00
2023-02-19T09:47:45.952Z,4612.00
2023-02-19T09:48:45.949Z,4592.00
2023-02-19T09:49:45.921Z,5108.00
2023-02-19T09:50:45.924Z,4744.00
2023-02-19T09:51:45.906Z,4320.00
2023-02-19T09:52:45.907Z,4716.00
2023-02-19T09:53:45.874Z,3924.00
2023-02-19T09:54:45.905Z,4012.00
2023-02-19T09:55:45.863Z,4240.00
2023-02-19T09:56:45.855Z,5704.00
2023-02-19T09:57:45.817Z,6120.00
2023-02-19T09:58:45.811Z,5480.00
2023-02-19T09:59:45.830Z,5472.00
2023-02-19T10:00:45.790Z,4852.00
2023-02-19T10:01:45.847Z,4604.00
2023-02-19T10:02:45.762Z,4724.00
2023-02-19T10:03:45.740Z,4856.00
2023-02-19T10:04:45.831Z,5944.00
2023-02-19T10:05:45.794Z,6168.00
2023-02-19T10:06:45.710Z,5196.00
2023-02-19T10:07:45.723Z,5104.00
2023-02-19T10:08:45.680Z,4632.00
2023-02-19T10:09:45.660Z,4588.00
2023-02-19T10:10:45.675Z,5568.00
2023-02-19T10:11:45.642Z,4612.00
2023-02-19T10:12:45.630Z,5760.00
2023-02-19T10:13:45.621Z,4264.00
2023-02-19T10:14:45.625Z,6116.00
2023-02-19T10:15:45.601Z,5160.00
2023-02-19T10:16:45.601Z,6232.00
2023-02-19T10:17:45.580Z,6536.00
2023-02-19T10:18:45.565Z,6336.00
2023-02-19T10:19:45.544Z,5316.00
2023-02-19T10:20:45.541Z,6776.00
2023-02-19T10:21:45.532Z,6972.00
2023-02-19T10:22:45.500Z,7056.00
2023-02-19T10:23:45.509Z,6684.00
2023-02-19T10:24:45.482Z,6796.00
2023-02-19T10:25:45.461Z,5788.00
2023-02-19T10:26:45.450Z,5552.00
2023-02-19T10:27:45.454Z,5364.00
2023-02-19T10:28:45.433Z,6988.00
2023-02-19T10:29:45.418Z,7576.00
2023-02-19T10:30:45.391Z,5200.00
2023-02-19T10:31:45.501Z,5764.00
2023-02-19T10:32:45.384Z,7400.00
2023-02-19T10:33:45.374Z,5288.00
2023-02-19T10:34:45.361Z,5452.00
2023-02-19T10:35:45.340Z,7004.00
2023-02-19T10:36:45.374Z,6100.00
2023-02-19T10:37:45.324Z,5516.00
2023-02-19T10:38:45.333Z,6788.00
2023-02-19T10:39:45.310Z,6356.00
2023-02-19T10:40:45.271Z,4640.00
2023-02-19T10:41:45.301Z,5748.00
2023-02-19T10:42:45.278Z,4188.00
2023-02-19T10:43:45.257Z,5748.00
2023-02-19T10:44:45.233Z,5776.00
2023-02-19T10:45:45.215Z,5652.00
2023-02-19T10:46:45.255Z,5504.00
2023-02-19T10:47:45.204Z,5312.00
2023-02-19T10:48:45.164Z,5528.00
2023-02-19T10:49:45.196Z,5532.00
2023-02-19T10:50:45.159Z,6156.00
2023-02-19T10:51:45.146Z,5208.00
2023-02-19T10:52:45.121Z,5156.00
2023-02-19T10:53:45.109Z,5240.00
2023-02-19T10:54:45.124Z,6096.00
2023-02-19T10:55:45.101Z,4776.00
2023-02-19T10:56:45.078Z,5012.00
2023-02-19T10:57:45.076Z,6540.00
2023-02-19T10:58:45.045Z,5448.00
2023-02-19T10:59:45.031Z,6748.00
2023-02-19T11:00:45.045Z,6372.00
2023-02-19T11:01:45.042Z,5184.00
2023-02-19T11:02:44.983Z,6916.00
2023-02-19T11:03:44.986Z,7028.00
2023-02-19T11:04:45.045Z,7156.00
2023-02-19T11:05:44.985Z,7396.00
2023-02-19T11:06:45.055Z,6900.00
2023-02-19T11:07:44.933Z,6836.00
2023-02-19T11:08:44.924Z,5384.00
2023-02-19T11:09:44.913Z,5536.00
2023-02-19T11:10:44.930Z,5476.00
2023-02-19T11:11:44.892Z,6820.00
2023-02-19T11:12:44.865Z,6512.00
2023-02-19T11:13:44.863Z,4504.00
2023-02-19T11:14:44.853Z,4388.00
2023-02-19T11:15:44.841Z,4472.00
2023-02-19T11:16:44.809Z,4372.00
2023-02-19T11:17:44.840Z,4632.00
2023-02-19T11:18:44.793Z,6416.00
2023-02-19T11:19:44.792Z,4464.00
2023-02-19T11:20:44.772Z,3920.00
2023-02-19T11:21:44.760Z,4776.00
2023-02-19T11:22:44.771Z,3696.00
2023-02-19T11:23:44.770Z,3660.00
2023-02-19T11:24:44.713Z,3880.00
2023-02-19T11:25:44.743Z,3940.00
2023-02-19T11:26:44.689Z,5088.00
2023-02-19T11:27:44.700Z,5868.00
2023-02-19T11:28:44.682Z,5908.00
2023-02-19T11:29:44.650Z,5624.00
2023-02-19T11:30:44.648Z,5812.00
2023-02-19T11:31:44.690Z,5680.00
2023-02-19T11:32:44.621Z,4964.00
2023-02-19T11:33:44.614Z,4308.00
2023-02-19T11:34:44.581Z,4500.00
2023-02-19T11:35:44.584Z,4648.00
2023-02-19T11:36:44.569Z,6396.00
2023-02-19T11:37:44.567Z,6808.00
2023-02-19T11:38:44.550Z,5596.00
2023-02-19T11:39:44.523Z,7356.00
2023-02-19T11:40:44.503Z,6292.00
2023-02-19T11:41:44.526Z,7528.00
2023-02-19T11:42:44.495Z,7596.00
2023-02-19T11:43:44.486Z,7408.00
2023-02-19T11:44:44.478Z,6460.00
2023-02-19T11:45:44.474Z,7152.00
2023-02-19T11:46:44.501Z,7068.00
2023-02-19T11:47:44.436Z,7064.00
2023-02-19T11:48:44.420Z,6656.00
2023-02-19T11:49:44.418Z,6920.00
2023-02-19T11:50:44.388Z,7024.00
2023-02-19T11:51:47.623Z,7204.00
2023-02-19T11:52:45.380Z,6956.00
2023-02-19T11:53:44.345Z,6484.00
2023-02-19T11:54:44.360Z,6144.00
2023-02-19T11:55:44.372Z,6132.00
2023-02-19T11:56:44.355Z,6036.00
2023-02-19T11:57:44.313Z,4580.00
2023-02-19T11:58:44.273Z,4352.00
2023-02-19T11:59:44.280Z,6356.00
2023-02-19T12:00:44.256Z,5036.00
2023-02-19T12:01:44.292Z,5228.00
2023-02-19T12:02:44.292Z,7096.00
2023-02-19T12:03:44.222Z,5712.00
2023-02-19T12:04:44.215Z,6084.00
2023-02-19T12:05:44.183Z,6188.00
2023-02-19T12:06:44.176Z,7632.00
2023-02-19T12:07:44.213Z,7448.00
2023-02-19T12:08:44.220Z,6944.00
2023-02-19T12:09:44.132Z,5776.00
2023-02-19T12:10:44.135Z,7364.00
2023-02-19T12:11:44.130Z,7032.00
2023-02-19T12:12:44.093Z,5464.00
2023-02-19T12:13:44.091Z,5860.00
2023-02-19T12:14:44.084Z,6280.00
2023-02-19T12:15:44.073Z,6512.00
2023-02-19T12:16:44.099Z,6360.00
2023-02-19T12:17:44.040Z,6300.00
2023-02-19T12:18:44.040Z,5528.00
2023-02-19T12:19:44.002Z,6648.00
2023-02-19T12:20:44.004Z,6864.00
2023-02-19T12:21:43.996Z,5588.00
2023-02-19T12:22:43.964Z,5180.00
2023-02-19T12:23:43.972Z,5216.00
2023-02-19T12:24:43.951Z,5184.00
2023-02-19T12:25:43.942Z,6724.00
2023-02-19T12:26:43.910Z,6276.00
2023-02-19T12:27:43.902Z,4944.00
2023-02-19T12:28:43.894Z,4764.00
2023-02-19T12:29:43.895Z,4460.00
2023-02-19T12:30:43.874Z,3720.00
2023-02-19T12:31:43.897Z,3336.00
2023-02-19T12:32:43.851Z,3268.00
2023-02-19T12:33:43.868Z,3460.00
2023-02-19T12:34:43.821Z,3752.00
2023-02-19T12:35:43.807Z,4092.00
2023-02-19T12:36:43.780Z,4524.00
2023-02-19T12:37:43.794Z,5496.00
2023-02-19T12:38:43.769Z,5620.00
2023-02-19T12:39:43.894Z,6092.00
2023-02-19T12:40:43.758Z,6364.00
2023-02-19T12:41:43.766Z,6044.00